sensor_id;sensor_type;location;lat;lon;timestamp;pressure;altitude;pressure_sealevel;temperature;humidity
57668;BME280;43499;52.366;12.912;2022-07-29T00:01:07;101607.00;;;15.63;59.62
57668;BME280;43499;52.366;12.912;2022-07-29T00:02:47;101605.03;;;15.49;59.56
57668;BME280;43499;52.366;12.912;2022-07-29T00:04:51;101596.50;;;15.53;59.01
57668;BME280;43499;52.366;12.912;2022-07-29T00:21:00;101594.88;;;15.43;59.04
57668;BME280;43499;52.366;12.912;2022-07-29T00:22:47;101602.84;;;15.43;59.13
57668;BME280;43499;52.366;12.912;2022-07-29T00:24:17;101605.81;;;15.48;59.36
57668;BME280;43499;52.366;12.912;2022-07-29T01:09:01;101578.41;;;15.23;62.36
57668;BME280;43499;52.366;12.912;2022-07-29T01:12:09;101553.88;;;15.14;62.58
57668;BME280;43499;52.366;12.912;2022-07-29T01:46:44;101510.94;;;15.06;64.53
57668;BME280;43499;52.366;12.912;2022-07-29T02:19:53;101487.78;;;14.92;66.05
57668;BME280;43499;52.366;12.912;2022-07-29T02:21:24;101501.28;;;15.07;65.81
57668;BME280;43499;52.366;12.912;2022-07-29T02:29:09;101498.25;;;15.02;66.74
57668;BME280;43499;52.366;12.912;2022-07-29T02:50:09;101484.56;;;14.84;67.19
57668;BME280;43499;52.366;12.912;2022-07-29T02:51:17;101484.31;;;14.69;67.86
57668;BME280;43499;52.366;12.912;2022-07-29T02:52:24;101490.44;;;14.80;67.78
57668;BME280;43499;52.366;12.912;2022-07-29T02:53:29;101487.19;;;14.84;67.46
57668;BME280;43499;52.366;12.912;2022-07-29T02:54:38;101484.97;;;14.66;68.28
57668;BME280;43499;52.366;12.912;2022-07-29T02:55:44;101496.09;;;14.62;68.65
57668;BME280;43499;52.366;12.912;2022-07-29T02:56:47;101495.81;;;14.70;68.35
57668;BME280;43499;52.366;12.912;2022-07-29T02:57:57;101494.41;;;14.63;68.70
57668;BME280;43499;52.366;12.912;2022-07-29T02:59:03;101497.50;;;14.57;68.76
57668;BME280;43499;52.366;12.912;2022-07-29T03:00:07;101488.97;;;14.61;68.89
57668;BME280;43499;52.366;12.912;2022-07-29T03:01:12;101491.25;;;14.57;68.93
57668;BME280;43499;52.366;12.912;2022-07-29T03:02:16;101493.56;;;14.52;69.16
57668;BME280;43499;52.366;12.912;2022-07-29T03:03:18;101499.78;;;14.53;69.53
57668;BME280;43499;52.366;12.912;2022-07-29T03:04:21;101497.22;;;14.42;69.77
57668;BME280;43499;52.366;12.912;2022-07-29T03:05:26;101492.50;;;14.38;69.92
57668;BME280;43499;52.366;12.912;2022-07-29T03:06:28;101499.75;;;14.41;69.96
57668;BME280;43499;52.366;12.912;2022-07-29T03:07:31;101495.13;;;14.38;70.16
57668;BME280;43499;52.366;12.912;2022-07-29T03:08:35;101496.19;;;14.40;70.11
57668;BME280;43499;52.366;12.912;2022-07-29T03:09:37;101487.28;;;14.28;70.27
57668;BME280;43499;52.366;12.912;2022-07-29T03:10:43;101495.31;;;14.63;69.41
57668;BME280;43499;52.366;12.912;2022-07-29T03:11:44;101488.09;;;14.73;69.14
57668;BME280;43499;52.366;12.912;2022-07-29T03:12:47;101492.13;;;14.68;69.27
57668;BME280;43499;52.366;12.912;2022-07-29T03:13:48;101485.91;;;14.67;69.19
57668;BME280;43499;52.366;12.912;2022-07-29T03:14:52;101481.25;;;14.87;68.14
57668;BME280;43499;52.366;12.912;2022-07-29T03:15:53;101490.69;;;14.83;68.53
57668;BME280;43499;52.366;12.912;2022-07-29T03:16:57;101482.94;;;14.86;68.43
57668;BME280;43499;52.366;12.912;2022-07-29T03:17:59;101482.03;;;14.86;68.41
57668;BME280;43499;52.366;12.912;2022-07-29T03:19:03;101481.22;;;14.75;68.54
57668;BME280;43499;52.366;12.912;2022-07-29T03:20:05;101481.78;;;14.83;68.31
57668;BME280;43499;52.366;12.912;2022-07-29T03:21:09;101478.59;;;14.87;68.57
57668;BME280;43499;52.366;12.912;2022-07-29T03:22:10;101486.63;;;14.76;68.73
57668;BME280;43499;52.366;12.912;2022-07-29T03:23:18;101495.72;;;14.80;68.70
57668;BME280;43499;52.366;12.912;2022-07-29T03:24:29;101487.13;;;14.94;68.48
57668;BME280;43499;52.366;12.912;2022-07-29T03:25:31;101478.59;;;14.87;68.42
57668;BME280;43499;52.366;12.912;2022-07-29T03:26:33;101485.69;;;14.76;68.00
57668;BME280;43499;52.366;12.912;2022-07-29T03:27:34;101487.66;;;14.78;68.69
57668;BME280;43499;52.366;12.912;2022-07-29T03:28:36;101487.34;;;14.86;68.66
57668;BME280;43499;52.366;12.912;2022-07-29T03:29:37;101488.72;;;14.92;68.34
57668;BME280;43499;52.366;12.912;2022-07-29T03:30:39;101484.66;;;14.74;68.63
57668;BME280;43499;52.366;12.912;2022-07-29T03:31:40;101483.66;;;14.72;69.07
57668;BME280;43499;52.366;12.912;2022-07-29T03:32:42;101488.84;;;14.82;68.89
57668;BME280;43499;52.366;12.912;2022-07-29T03:33:43;101481.13;;;14.97;68.31
57668;BME280;43499;52.366;12.912;2022-07-29T03:34:45;101483.56;;;15.06;67.75
57668;BME280;43499;52.366;12.912;2022-07-29T03:35:46;101481.00;;;15.07;67.86
57668;BME280;43499;52.366;12.912;2022-07-29T03:36:49;101485.50;;;15.08;67.84
57668;BME280;43499;52.366;12.912;2022-07-29T03:37:51;101478.69;;;14.88;67.71
57668;BME280;43499;52.366;12.912;2022-07-29T03:38:52;101488.09;;;14.73;68.48
57668;BME280;43499;52.366;12.912;2022-07-29T03:39:56;101483.91;;;14.64;69.34
57668;BME280;43499;52.366;12.912;2022-07-29T03:41:00;101482.06;;;14.63;69.11
57668;BME280;43499;52.366;12.912;2022-07-29T03:42:04;101479.34;;;14.74;69.42
57668;BME280;43499;52.366;12.912;2022-07-29T03:43:08;101479.25;;;14.72;69.64
57668;BME280;43499;52.366;12.912;2022-07-29T03:44:12;101471.56;;;14.75;68.98
57668;BME280;43499;52.366;12.912;2022-07-29T03:45:17;101479.50;;;14.75;69.62
57668;BME280;43499;52.366;12.912;2022-07-29T03:46:22;101472.69;;;14.67;69.77
57668;BME280;43499;52.366;12.912;2022-07-29T03:47:27;101476.63;;;14.72;69.31
57668;BME280;43499;52.366;12.912;2022-07-29T03:48:32;101475.94;;;14.87;68.96
57668;BME280;43499;52.366;12.912;2022-07-29T03:49:36;101473.16;;;14.85;69.09
57668;BME280;43499;52.366;12.912;2022-07-29T03:50:39;101465.81;;;14.81;69.24
57668;BME280;43499;52.366;12.912;2022-07-29T03:51:40;101469.84;;;15.00;68.75
57668;BME280;43499;52.366;12.912;2022-07-29T03:52:44;101473.63;;;15.03;68.67
57668;BME280;43499;52.366;12.912;2022-07-29T03:53:45;101470.88;;;15.02;68.48
57668;BME280;43499;52.366;12.912;2022-07-29T03:54:47;101472.59;;;14.89;68.65
57668;BME280;43499;52.366;12.912;2022-07-29T03:55:50;101474.19;;;14.87;68.56
57668;BME280;43499;52.366;12.912;2022-07-29T03:56:57;101476.41;;;14.81;68.98
57668;BME280;43499;52.366;12.912;2022-07-29T03:58:00;101472.81;;;14.80;69.24
57668;BME280;43499;52.366;12.912;2022-07-29T03:59:03;101479.84;;;14.80;69.24
57668;BME280;43499;52.366;12.912;2022-07-29T04:00:06;101477.19;;;14.80;69.19
57668;BME280;43499;52.366;12.912;2022-07-29T04:01:08;101481.69;;;14.81;69.15
57668;BME280;43499;52.366;12.912;2022-07-29T04:02:11;101481.69;;;14.81;69.24
57668;BME280;43499;52.366;12.912;2022-07-29T04:03:13;101482.94;;;14.86;69.23
57668;BME280;43499;52.366;12.912;2022-07-29T04:04:14;101480.53;;;14.89;68.90
57668;BME280;43499;52.366;12.912;2022-07-29T04:05:18;101483.28;;;14.91;69.07
57668;BME280;43499;52.366;12.912;2022-07-29T04:06:19;101481.94;;;14.96;68.68
57668;BME280;43499;52.366;12.912;2022-07-29T04:07:21;101482.50;;;15.04;68.57
57668;BME280;43499;52.366;12.912;2022-07-29T04:08:23;101478.25;;;15.18;68.30
57668;BME280;43499;52.366;12.912;2022-07-29T04:09:25;101483.53;;;15.18;68.25
57668;BME280;43499;52.366;12.912;2022-07-29T04:10:27;101476.84;;;15.35;68.14
57668;BME280;43499;52.366;12.912;2022-07-29T04:11:28;101481.94;;;15.20;68.21
57668;BME280;43499;52.366;12.912;2022-07-29T04:12:29;101480.53;;;15.13;68.81
57668;BME280;43499;52.366;12.912;2022-07-29T04:13:32;101485.59;;;15.10;69.06
57668;BME280;43499;52.366;12.912;2022-07-29T04:14:33;101485.16;;;15.04;69.22
57668;BME280;43499;52.366;12.912;2022-07-29T04:15:35;101476.75;;;14.98;69.67
57668;BME280;43499;52.366;12.912;2022-07-29T04:16:36;101480.19;;;14.96;69.70
57668;BME280;43499;52.366;12.912;2022-07-29T04:17:38;101489.41;;;15.02;69.55
57668;BME280;43499;52.366;12.912;2022-07-29T04:18:39;101486.53;;;15.10;69.18
57668;BME280;43499;52.366;12.912;2022-07-29T04:19:41;101486.66;;;15.12;69.38
57668;BME280;43499;52.366;12.912;2022-07-29T04:20:42;101479.03;;;15.17;68.67
57668;BME280;43499;52.366;12.912;2022-07-29T04:21:44;101482.63;;;15.17;68.94
57668;BME280;43499;52.366;12.912;2022-07-29T04:22:45;101479.38;;;15.21;68.68
57668;BME280;43499;52.366;12.912;2022-07-29T04:23:49;101482.16;;;15.23;68.80
57668;BME280;43499;52.366;12.912;2022-07-29T04:24:50;101487.56;;;15.24;68.54
57668;BME280;43499;52.366;12.912;2022-07-29T04:25:52;101494.72;;;15.25;68.58
57668;BME280;43499;52.366;12.912;2022-07-29T04:26:53;101481.56;;;15.39;68.10
57668;BME280;43499;52.366;12.912;2022-07-29T04:27:55;101488.72;;;15.40;68.02
57668;BME280;43499;52.366;12.912;2022-07-29T04:29:02;101487.34;;;15.33;68.13
57668;BME280;43499;52.366;12.912;2022-07-29T04:30:05;101488.84;;;15.30;68.08
57668;BME280;43499;52.366;12.912;2022-07-29T04:31:06;101489.97;;;15.33;68.32
57668;BME280;43499;52.366;12.912;2022-07-29T04:32:08;101489.38;;;15.49;67.50
57668;BME280;43499;52.366;12.912;2022-07-29T04:33:09;101482.81;;;15.56;66.90
57668;BME280;43499;52.366;12.912;2022-07-29T04:34:11;101489.00;;;15.56;67.40
57668;BME280;43499;52.366;12.912;2022-07-29T04:35:13;101489.69;;;15.66;67.12
57668;BME280;43499;52.366;12.912;2022-07-29T04:36:15;101487.59;;;15.73;66.60
57668;BME280;43499;52.366;12.912;2022-07-29T04:37:16;101482.53;;;15.65;66.69
57668;BME280;43499;52.366;12.912;2022-07-29T04:38:17;101484.66;;;15.57;66.74
57668;BME280;43499;52.366;12.912;2022-07-29T04:39:20;101482.19;;;15.60;67.08
57668;BME280;43499;52.366;12.912;2022-07-29T04:40:22;101482.91;;;15.69;66.63
57668;BME280;43499;52.366;12.912;2022-07-29T04:41:23;101488.31;;;15.71;66.76
57668;BME280;43499;52.366;12.912;2022-07-29T04:42:25;101485.75;;;15.72;66.78
57668;BME280;43499;52.366;12.912;2022-07-29T04:43:26;101488.72;;;15.77;66.77
57668;BME280;43499;52.366;12.912;2022-07-29T04:44:28;101490.56;;;15.78;66.39
57668;BME280;43499;52.366;12.912;2022-07-29T04:45:29;101490.72;;;15.68;66.92
57668;BME280;43499;52.366;12.912;2022-07-29T04:46:31;101484.00;;;15.85;66.05
57668;BME280;43499;52.366;12.912;2022-07-29T04:47:32;101487.06;;;16.03;65.47
57668;BME280;43499;52.366;12.912;2022-07-29T04:48:34;101491.94;;;15.97;65.44
57668;BME280;43499;52.366;12.912;2022-07-29T04:49:37;101486.25;;;16.04;65.39
57668;BME280;43499;52.366;12.912;2022-07-29T04:50:39;101480.06;;;16.17;65.08
57668;BME280;43499;52.366;12.912;2022-07-29T04:51:40;101481.75;;;16.03;65.32
57668;BME280;43499;52.366;12.912;2022-07-29T04:52:42;101482.38;;;15.99;65.94
57668;BME280;43499;52.366;12.912;2022-07-29T04:53:43;101483.38;;;16.01;66.11
57668;BME280;43499;52.366;12.912;2022-07-29T04:54:47;101475.50;;;16.14;65.80
57668;BME280;43499;52.366;12.912;2022-07-29T04:55:48;101474.50;;;16.26;64.64
57668;BME280;43499;52.366;12.912;2022-07-29T04:56:50;101478.41;;;16.31;64.98
57668;BME280;43499;52.366;12.912;2022-07-29T04:57:51;101479.44;;;16.08;64.76
57668;BME280;43499;52.366;12.912;2022-07-29T04:58:53;101475.94;;;16.21;65.02
57668;BME280;43499;52.366;12.912;2022-07-29T04:59:54;101477.09;;;16.12;64.80
57668;BME280;43499;52.366;12.912;2022-07-29T05:00:56;101477.56;;;16.18;65.04
57668;BME280;43499;52.366;12.912;2022-07-29T05:01:58;101483.44;;;16.14;65.15
57668;BME280;43499;52.366;12.912;2022-07-29T05:02:59;101483.91;;;16.21;64.80
57668;BME280;43499;52.366;12.912;2022-07-29T05:04:01;101480.63;;;16.25;64.57
57668;BME280;43499;52.366;12.912;2022-07-29T05:05:02;101478.50;;;16.32;64.63
57668;BME280;43499;52.366;12.912;2022-07-29T05:06:04;101481.25;;;16.34;64.44
57668;BME280;43499;52.366;12.912;2022-07-29T05:07:05;101486.25;;;16.29;63.75
57668;BME280;43499;52.366;12.912;2022-07-29T05:08:07;101473.97;;;16.18;63.81
57668;BME280;43499;52.366;12.912;2022-07-29T05:09:08;101485.03;;;16.24;64.29
57668;BME280;43499;52.366;12.912;2022-07-29T05:10:12;101482.91;;;16.32;64.50
57668;BME280;43499;52.366;12.912;2022-07-29T05:11:12;101474.34;;;16.36;63.97
57668;BME280;43499;52.366;12.912;2022-07-29T05:12:14;101474.66;;;16.41;64.06
57668;BME280;43499;52.366;12.912;2022-07-29T05:13:15;101479.81;;;16.26;64.37
57668;BME280;43499;52.366;12.912;2022-07-29T05:14:17;101475.16;;;16.35;64.40
57668;BME280;43499;52.366;12.912;2022-07-29T05:15:18;101486.31;;;16.43;64.01
57668;BME280;43499;52.366;12.912;2022-07-29T05:16:20;101484.69;;;16.45;64.22
57668;BME280;43499;52.366;12.912;2022-07-29T05:17:22;101484.19;;;16.50;63.48
57668;BME280;43499;52.366;12.912;2022-07-29T05:18:23;101488.38;;;16.47;62.80
57668;BME280;43499;52.366;12.912;2022-07-29T05:19:25;101484.69;;;16.45;63.01
57668;BME280;43499;52.366;12.912;2022-07-29T05:20:27;101479.09;;;16.28;63.22
57668;BME280;43499;52.366;12.912;2022-07-29T05:21:29;101484.75;;;16.33;63.58
57668;BME280;43499;52.366;12.912;2022-07-29T05:22:31;101478.28;;;16.29;63.73
57668;BME280;43499;52.366;12.912;2022-07-29T05:23:32;101478.50;;;16.32;63.04
57668;BME280;43499;52.366;12.912;2022-07-29T05:24:34;101473.75;;;16.40;63.38
57668;BME280;43499;52.366;12.912;2022-07-29T05:25:36;101471.19;;;16.42;63.90
57668;BME280;43499;52.366;12.912;2022-07-29T05:26:38;101472.31;;;16.45;63.58
57668;BME280;43499;52.366;12.912;2022-07-29T05:27:39;101482.34;;;16.49;63.52
57668;BME280;43499;52.366;12.912;2022-07-29T05:28:41;101470.00;;;16.63;62.94
57668;BME280;43499;52.366;12.912;2022-07-29T05:29:42;101469.94;;;16.75;62.38
57668;BME280;43499;52.366;12.912;2022-07-29T05:30:45;101472.19;;;16.83;60.94
57668;BME280;43499;52.366;12.912;2022-07-29T05:31:46;101473.50;;;16.76;61.66
57668;BME280;43499;52.366;12.912;2022-07-29T05:32:48;101473.09;;;16.70;61.49
57668;BME280;43499;52.366;12.912;2022-07-29T05:33:50;101471.59;;;16.87;61.85
57668;BME280;43499;52.366;12.912;2022-07-29T05:34:50;101466.22;;;16.99;61.22
57668;BME280;43499;52.366;12.912;2022-07-29T05:35:52;101464.50;;;17.13;61.60
57668;BME280;43499;52.366;12.912;2022-07-29T05:36:53;101465.63;;;17.16;62.21
57668;BME280;43499;52.366;12.912;2022-07-29T05:37:55;101453.06;;;17.14;61.02
57668;BME280;43499;52.366;12.912;2022-07-29T05:38:56;101453.44;;;17.06;61.54
57668;BME280;43499;52.366;12.912;2022-07-29T05:39:58;101462.53;;;17.10;61.64
57668;BME280;43499;52.366;12.912;2022-07-29T05:41:01;101464.88;;;17.19;61.63
57668;BME280;43499;52.366;12.912;2022-07-29T05:42:03;101465.41;;;17.13;61.37
57668;BME280;43499;52.366;12.912;2022-07-29T05:43:04;101466.69;;;16.93;60.47
57668;BME280;43499;52.366;12.912;2022-07-29T05:44:05;101457.13;;;17.08;60.37
57668;BME280;43499;52.366;12.912;2022-07-29T05:45:07;101465.19;;;17.10;59.96
57668;BME280;43499;52.366;12.912;2022-07-29T05:46:09;101463.84;;;17.17;59.68
57668;BME280;43499;52.366;12.912;2022-07-29T05:47:10;101472.84;;;17.05;59.41
57668;BME280;43499;52.366;12.912;2022-07-29T05:48:12;101472.84;;;17.05;59.68
57668;BME280;43499;52.366;12.912;2022-07-29T05:49:13;101470.72;;;17.00;59.01
57668;BME280;43499;52.366;12.912;2022-07-29T05:50:15;101473.78;;;17.06;59.81
57668;BME280;43499;52.366;12.912;2022-07-29T05:51:16;101466.41;;;17.02;59.95
57668;BME280;43499;52.366;12.912;2022-07-29T05:52:18;101464.59;;;17.14;60.00
57668;BME280;43499;52.366;12.912;2022-07-29T05:53:19;101472.25;;;17.23;59.29
57668;BME280;43499;52.366;12.912;2022-07-29T05:54:21;101464.47;;;17.26;59.18
57668;BME280;43499;52.366;12.912;2022-07-29T05:55:22;101469.59;;;17.23;58.81
57668;BME280;43499;52.366;12.912;2022-07-29T05:56:26;101461.41;;;17.20;58.67
57668;BME280;43499;52.366;12.912;2022-07-29T05:57:27;101460.69;;;17.22;58.77
57668;BME280;43499;52.366;12.912;2022-07-29T05:58:30;101465.50;;;17.28;59.28
57668;BME280;43499;52.366;12.912;2022-07-29T05:59:35;101470.13;;;17.17;58.71
57668;BME280;43499;52.366;12.912;2022-07-29T06:00:38;101464.50;;;17.13;58.97
57668;BME280;43499;52.366;12.912;2022-07-29T06:01:39;101459.66;;;17.20;59.67
57668;BME280;43499;52.366;12.912;2022-07-29T06:02:42;101460.91;;;17.25;59.43
57668;BME280;43499;52.366;12.912;2022-07-29T06:03:43;101459.88;;;17.37;59.10
57668;BME280;43499;52.366;12.912;2022-07-29T06:04:45;101462.81;;;17.41;59.32
57668;BME280;43499;52.366;12.912;2022-07-29T06:05:46;101467.38;;;17.57;58.71
57668;BME280;43499;52.366;12.912;2022-07-29T06:06:48;101463.94;;;17.45;58.61
57668;BME280;43499;52.366;12.912;2022-07-29T06:07:49;101465.69;;;17.45;58.10
57668;BME280;43499;52.366;12.912;2022-07-29T06:08:51;101462.47;;;17.64;57.52
57668;BME280;43499;52.366;12.912;2022-07-29T06:09:52;101465.22;;;17.65;57.41
57668;BME280;43499;52.366;12.912;2022-07-29T06:10:54;101463.56;;;17.81;56.77
57668;BME280;43499;52.366;12.912;2022-07-29T06:11:58;101466.72;;;17.88;56.18
57668;BME280;43499;52.366;12.912;2022-07-29T06:12:59;101463.59;;;17.96;56.15
57668;BME280;43499;52.366;12.912;2022-07-29T06:14:01;101458.06;;;18.06;55.94
57668;BME280;43499;52.366;12.912;2022-07-29T06:15:04;101472.75;;;18.14;55.96
57668;BME280;43499;52.366;12.912;2022-07-29T06:16:06;101467.63;;;18.17;56.00
57668;BME280;43499;52.366;12.912;2022-07-29T06:17:08;101465.00;;;18.32;55.39
57668;BME280;43499;52.366;12.912;2022-07-29T06:18:12;101473.09;;;18.34;55.60
57668;BME280;43499;52.366;12.912;2022-07-29T06:19:14;101459.59;;;18.31;55.22
57668;BME280;43499;52.366;12.912;2022-07-29T06:20:16;101465.19;;;18.35;55.52
57668;BME280;43499;52.366;12.912;2022-07-29T06:21:17;101461.09;;;18.56;54.38
57668;BME280;43499;52.366;12.912;2022-07-29T06:22:19;101467.06;;;18.66;54.13
57668;BME280;43499;52.366;12.912;2022-07-29T06:23:20;101456.03;;;18.60;54.17
57668;BME280;43499;52.366;12.912;2022-07-29T06:24:22;101462.00;;;18.71;54.68
57668;BME280;43499;52.366;12.912;2022-07-29T06:25:23;101470.09;;;18.88;54.31
57668;BME280;43499;52.366;12.912;2022-07-29T06:26:25;101463.75;;;18.86;53.95
57668;BME280;43499;52.366;12.912;2022-07-29T06:27:27;101463.88;;;19.02;52.99
57668;BME280;43499;52.366;12.912;2022-07-29T06:28:30;101464.75;;;19.18;52.38
57668;BME280;43499;52.366;12.912;2022-07-29T06:29:32;101464.75;;;19.18;52.08
57668;BME280;43499;52.366;12.912;2022-07-29T06:30:34;101467.28;;;19.31;51.38
57668;BME280;43499;52.366;12.912;2022-07-29T06:31:35;101464.44;;;19.43;51.04
57668;BME280;43499;52.366;12.912;2022-07-29T06:32:37;101471.19;;;19.53;51.64
57668;BME280;43499;52.366;12.912;2022-07-29T06:33:38;101456.94;;;19.52;51.25
57668;BME280;43499;52.366;12.912;2022-07-29T06:34:39;101470.78;;;19.62;50.57
57668;BME280;43499;52.366;12.912;2022-07-29T06:35:41;101459.03;;;19.58;50.75
57668;BME280;43499;52.366;12.912;2022-07-29T06:36:43;101469.00;;;19.46;50.32
57668;BME280;43499;52.366;12.912;2022-07-29T06:37:45;101469.91;;;19.46;49.93
57668;BME280;43499;52.366;12.912;2022-07-29T06:38:46;101464.44;;;19.43;50.30
57668;BME280;43499;52.366;12.912;2022-07-29T06:39:48;101466.34;;;19.62;51.02
57668;BME280;43499;52.366;12.912;2022-07-29T06:41:10;101472.13;;;19.70;51.05
57668;BME280;43499;52.366;12.912;2022-07-29T06:42:16;101465.28;;;19.90;49.87
57668;BME280;43499;52.366;12.912;2022-07-29T06:43:18;101468.78;;;19.89;49.58
57668;BME280;43499;52.366;12.912;2022-07-29T06:44:21;101465.63;;;19.65;48.70
57668;BME280;43499;52.366;12.912;2022-07-29T06:45:23;101466.53;;;19.65;49.66
57668;BME280;43499;52.366;12.912;2022-07-29T06:46:24;101465.53;;;19.63;50.08
57668;BME280;43499;52.366;12.912;2022-07-29T06:47:28;101467.97;;;19.75;50.57
57668;BME280;43499;52.366;12.912;2022-07-29T06:48:30;101471.25;;;19.86;50.12
57668;BME280;43499;52.366;12.912;2022-07-29T06:49:32;101467.16;;;19.76;49.20
57668;BME280;43499;52.366;12.912;2022-07-29T06:50:34;101471.03;;;19.98;49.00
57668;BME280;43499;52.366;12.912;2022-07-29T06:51:35;101474.13;;;20.06;49.40
57668;BME280;43499;52.366;12.912;2022-07-29T06:52:37;101479.34;;;20.04;49.66
57668;BME280;43499;52.366;12.912;2022-07-29T06:53:39;101478.19;;;20.15;49.70
57668;BME280;43499;52.366;12.912;2022-07-29T06:54:41;101477.38;;;20.16;48.78
57668;BME280;43499;52.366;12.912;2022-07-29T06:55:48;101478.03;;;20.29;48.27
57668;BME280;43499;52.366;12.912;2022-07-29T06:56:50;101480.44;;;20.41;48.20
57668;BME280;43499;52.366;12.912;2022-07-29T06:57:51;101478.44;;;20.37;48.29
57668;BME280;43499;52.366;12.912;2022-07-29T06:58:56;101481.03;;;20.35;48.72
57668;BME280;43499;52.366;12.912;2022-07-29T06:59:58;101477.28;;;20.15;48.70
57668;BME280;43499;52.366;12.912;2022-07-29T07:01:02;101474.63;;;20.15;49.30
57668;BME280;43499;52.366;12.912;2022-07-29T07:02:04;101474.03;;;20.04;49.37
57668;BME280;43499;52.366;12.912;2022-07-29T07:03:05;101476.88;;;20.07;49.26
57668;BME280;43499;52.366;12.912;2022-07-29T07:04:07;101475.53;;;20.15;49.26
57668;BME280;43499;52.366;12.912;2022-07-29T07:05:10;101478.69;;;20.25;49.19
57668;BME280;43499;52.366;12.912;2022-07-29T07:06:11;101469.19;;;20.30;48.65
57668;BME280;43499;52.366;12.912;2022-07-29T07:07:13;101480.88;;;20.32;49.50
57668;BME280;43499;52.366;12.912;2022-07-29T07:08:15;101480.22;;;20.36;48.88
57668;BME280;43499;52.366;12.912;2022-07-29T07:09:17;101477.88;;;20.09;47.95
57668;BME280;43499;52.366;12.912;2022-07-29T07:10:19;101474.09;;;19.89;48.29
57668;BME280;43499;52.366;12.912;2022-07-29T07:11:20;101469.72;;;19.74;49.42
57668;BME280;43499;52.366;12.912;2022-07-29T07:12:22;101471.16;;;19.84;50.11
57668;BME280;43499;52.366;12.912;2022-07-29T07:13:23;101473.94;;;20.02;49.56
57668;BME280;43499;52.366;12.912;2022-07-29T07:14:27;101466.81;;;20.53;48.35
57668;BME280;43499;52.366;12.912;2022-07-29T07:15:28;101461.03;;;21.14;47.21
57668;BME280;43499;52.366;12.912;2022-07-29T07:16:31;101465.94;;;21.41;46.73
57668;BME280;43499;52.366;12.912;2022-07-29T07:17:32;101466.44;;;21.52;45.90
57668;BME280;43499;52.366;12.912;2022-07-29T07:18:34;101460.03;;;21.86;44.56
57668;BME280;43499;52.366;12.912;2022-07-29T07:19:35;101468.38;;;22.31;45.00
57668;BME280;43499;52.366;12.912;2022-07-29T07:20:37;101454.13;;;22.73;44.12
57668;BME280;43499;52.366;12.912;2022-07-29T07:21:38;101464.34;;;23.24;42.11
57668;BME280;43499;52.366;12.912;2022-07-29T07:22:40;101456.50;;;23.29;41.80
57668;BME280;43499;52.366;12.912;2022-07-29T07:23:41;101450.53;;;23.59;41.39
57668;BME280;43499;52.366;12.912;2022-07-29T07:24:43;101445.50;;;23.91;39.97
57668;BME280;43499;52.366;12.912;2022-07-29T07:25:44;101445.19;;;24.06;39.87
57668;BME280;43499;52.366;12.912;2022-07-29T07:26:46;101450.94;;;23.93;38.94
57668;BME280;43499;52.366;12.912;2022-07-29T07:27:47;101444.78;;;23.72;39.56
57668;BME280;43499;52.366;12.912;2022-07-29T07:30:29;101452.41;;;23.39;40.08
57668;BME280;43499;52.366;12.912;2022-07-29T07:31:31;101437.63;;;23.96;40.25
57668;BME280;43499;52.366;12.912;2022-07-29T07:32:32;101441.72;;;24.59;38.89
57668;BME280;43499;52.366;12.912;2022-07-29T07:33:34;101440.66;;;24.79;38.19
57668;BME280;43499;52.366;12.912;2022-07-29T07:34:36;101438.34;;;24.90;37.48
57668;BME280;43499;52.366;12.912;2022-07-29T07:35:38;101440.72;;;25.08;36.79
57668;BME280;43499;52.366;12.912;2022-07-29T07:38:22;101439.06;;;25.12;36.53
57668;BME280;43499;52.366;12.912;2022-07-29T07:39:23;101441.22;;;25.51;37.29
57668;BME280;43499;52.366;12.912;2022-07-29T07:40:26;101439.63;;;25.87;36.12
57668;BME280;43499;52.366;12.912;2022-07-29T07:41:28;101436.06;;;26.52;34.96
57668;BME280;43499;52.366;12.912;2022-07-29T07:42:29;101438.56;;;27.15;33.80
57668;BME280;43499;52.366;12.912;2022-07-29T07:43:31;101434.59;;;26.99;33.98
57668;BME280;43499;52.366;12.912;2022-07-29T07:44:33;101431.94;;;27.38;33.69
57668;BME280;43499;52.366;12.912;2022-07-29T07:45:36;101427.25;;;26.91;33.63
57668;BME280;43499;52.366;12.912;2022-07-29T07:46:38;101431.69;;;27.67;33.46
57668;BME280;43499;52.366;12.912;2022-07-29T07:47:39;101436.13;;;27.64;32.52
57668;BME280;43499;52.366;12.912;2022-07-29T07:48:41;101435.19;;;28.05;32.74
57668;BME280;43499;52.366;12.912;2022-07-29T07:49:42;101437.78;;;28.41;30.96
57668;BME280;43499;52.366;12.912;2022-07-29T07:50:43;101433.81;;;27.81;31.62
57668;BME280;43499;52.366;12.912;2022-07-29T07:51:45;101436.28;;;29.09;30.76
57668;BME280;43499;52.366;12.912;2022-07-29T07:52:48;101434.16;;;29.48;30.56
57668;BME280;43499;52.366;12.912;2022-07-29T07:53:50;101431.28;;;29.37;31.22
57668;BME280;43499;52.366;12.912;2022-07-29T07:54:51;101428.16;;;29.13;31.11
57668;BME280;43499;52.366;12.912;2022-07-29T07:55:53;101435.06;;;28.92;31.92
57668;BME280;43499;52.366;12.912;2022-07-29T07:56:54;101437.69;;;27.94;30.49
57668;BME280;43499;52.366;12.912;2022-07-29T07:57:56;101444.31;;;27.29;31.76
57668;BME280;43499;52.366;12.912;2022-07-29T07:58:58;101436.38;;;27.36;32.44
57668;BME280;43499;52.366;12.912;2022-07-29T07:59:59;101437.63;;;28.33;31.46
57668;BME280;43499;52.366;12.912;2022-07-29T08:01:03;101442.50;;;29.64;29.97
57668;BME280;43499;52.366;12.912;2022-07-29T08:02:04;101441.19;;;29.35;29.24